Kodiak, AK (99615)

4:09 AM AKDT on July 24, 2016 (GMT -0800)
| | Change Station

Elev -9999 ft 0.00 °N, 0.00 °E | Updated

Rain
Rain
53 °F
Feels Like 53 °F
N
6
Wind Variable Wind from WSW
Gusts mph

Today
High -- | Low -- °F
--% Chance of Precip.
Yesterday
High -- | Low -- °F
Precip. -- in
Pressure 29.70 in
Visibility 10.0 miles
Clouds Few 3800 ft
Few 7000 ft
Scattered Clouds 12000 ft
Dew Point 47 °F
Humidity 79%
Rainfall --
Snow Depth Not available.
5:49 AM 10:41 PM
Waning Gibbous, 77% visible
METAR PADQ 241153Z 00000KT 10SM FEW038 FEW070 SCT120 16/10 A2970 RMK AO2 SLP056 T01610100 10167 20156 57009 $
Pressure 29.70 in
Visibility 10.0 miles
Clouds Few 3800 ft
Few 7000 ft
Scattered Clouds 12000 ft
Dew Point 47 °F
Humidity 79%
Rainfall --
Snow Depth Not available.
5:49 AM 10:41 PM
Waning Gibbous, 77% visible
METAR PADQ 241153Z 00000KT 10SM FEW038 FEW070 SCT120 16/10 A2970 RMK AO2 SLP056 T01610100 10167 20156 57009 $

10-Day Weather Forecast

Almanac

Astronomy

Jul. 24, 2016 Rise Set
Actual Time
Civil Twilight
Nautical Twilight
Astronomical Twilight
Moon
Length of Visible Light
Length of Day
Tomorrow will be .
, % of the Moon is Illuminated

Today's Extremes

State Highs State Lows

Community

WunderPhotos

Upload Photos

1,927,050 photos uploaded!

WunderBlog® & News

Nearby

Air Quality

  Air Quality AQ Index Pollutant
Not available.

Snow Depth

Station Depth Elevation

Earthquake Activity

City Distance Mag. Time & Date
Minimum magnitude displayed is 2.5.

Coastal Water Temperatures

Place Temperature

Stations

Nearby Weather Stations

Station Location Temp. Windchill Dew Point Humidity Wind Precip. Elev Updated Type
                   

Watches & Warnings

There are currently no watches in effect.